Flight Track Log - Related Links

Times and Time Zones

All times are in EDT time to prevent confusion due to time zone crossing. See the MSR967 flight status page for this flight to view local times or setup timezone preferences in your user account.

Time Position Orientation Groundspeed Altitude Reporting Facility
EDT Latitude Longitude Course Direction KTS MPH feet Rate Location/Type
Wed 05:24:48 PM 25.3380 55.4860 302° West 179 206 1,600  Level FlightAware ADS-B
Wed 05:25:13 PM 25.3490 55.4670 303° West 183 211 2,200 1,200 Climbing FlightAware ADS-B
Wed 05:25:43 PM 25.3660 55.4390 304° West 221 254 2,700 2,000 Climbing FlightAware ADS-B
Wed 05:26:13 PM 25.3870 55.4030 303° West 219 252 4,200 2,100 Climbing FlightAware ADS-B
Wed 05:26:43 PM 25.4030 55.3740 301° West 245 282 4,800 1,418 Climbing FlightAware ADS-B
Wed 05:27:08 PM 25.4170 55.3500 303° West 247 284 5,500 2,160 Climbing FlightAware ADS-B
Wed 05:27:33 PM 25.4360 55.3170 303° West 263 303 6,600 2,250 Climbing FlightAware ADS-B
Wed 05:27:48 PM 25.4400 55.2980 283° West 264 304 7,000 933 Climbing FlightAware ADS-B
Wed 05:28:18 PM 25.4340 55.2620 260° West 261 300 7,300 200 Climbing FlightAware ADS-B
Wed 05:28:48 PM 25.4260 55.2220 258° West 264 304 7,200 -109 Descending FlightAware ADS-B
Wed 05:29:13 PM 25.4190 55.1880 257° West 266 306 7,200  Level FlightAware ADS-B
Wed 05:29:43 PM 25.4110 55.1470 258° West 268 308 7,200 200 Level FlightAware ADS-B
Wed 05:30:13 PM 25.4010 55.1000 257° West 313 360 7,400 873 Climbing FlightAware ADS-B
Wed 05:30:38 PM 25.3940 55.0660 257° West 327 376 8,000 1,964 Climbing FlightAware ADS-B
Wed 05:31:08 PM 25.3820 55.0110 256° West 331 381 9,200 2,073 Climbing FlightAware ADS-B
Wed 05:31:33 PM 25.3740 54.9750 256° West 339 390 9,900 1,800 Climbing FlightAware ADS-B
Wed 05:32:18 PM 25.3560 54.8910 257° West 355 409 11,300 1,457 Climbing FlightAware ADS-B
Wed 05:32:43 PM 25.3610 54.8480 277° West 367 422 11,600 1,029 Climbing FlightAware ADS-B
Wed 05:33:28 PM 25.3830 54.7610 286° West 391 450 12,500 1,200 Climbing FlightAware ADS-B
Wed 05:34:08 PM 25.4030 54.6810 285° West 409 471 13,300 1,350 Climbing FlightAware ADS-B
Wed 05:34:48 PM 25.4240 54.5980 286° West 420 483 14,300 1,467 Climbing FlightAware ADS-B
Wed 05:35:38 PM 25.4500 54.4930 285° West 431 496 15,500 1,400 Climbing FlightAware ADS-B
Wed 05:36:18 PM 25.4710 54.4060 285° West 441 507 16,400 1,425 Climbing FlightAware ADS-B
Wed 05:36:58 PM 25.4920 54.3200 285° West 444 511 17,400 1,412 Climbing FlightAware ADS-B
Wed 05:37:43 PM 25.5170 54.2200 286° West 450 518 18,400 1,341 Climbing FlightAware ADS-B
Wed 05:38:23 PM 25.5390 54.1310 285° West 454 522 19,300 1,765 Climbing FlightAware ADS-B
Wed 05:39:08 PM 25.5630 54.0340 285° West 440 506 20,900 1,694 Climbing FlightAware ADS-B
Wed 05:39:48 PM 25.5840 53.9460 285° West 443 510 21,700 1,125 Climbing FlightAware ADS-B
Wed 05:40:28 PM 25.6050 53.8580 285° West 445 512 22,400 1,200 Climbing FlightAware ADS-B
Wed 05:41:13 PM 25.6290 53.7600 285° West 442 509 23,400 1,200 Climbing FlightAware ADS-B
Wed 05:41:53 PM 25.6500 53.6710 285° West 443 510 24,100 975 Climbing FlightAware ADS-B
Wed 05:42:33 PM 25.6710 53.5840 285° West 445 512 24,700 686 Climbing FlightAware ADS-B
Wed 05:43:03 PM 25.6870 53.5170 285° West 452 520 24,900 720 Climbing FlightAware ADS-B
Wed 05:43:48 PM 25.7120 53.4150 285° West 451 519 25,600 825 Climbing FlightAware ADS-B
Wed 05:44:23 PM 25.7290 53.3440 285° West 453 521 26,000 825 Climbing FlightAware ADS-B
Wed 05:45:08 PM 25.7480 53.2330 281° West 453 521 26,700 933 Climbing FlightAware ADS-B
Wed 05:45:53 PM 25.7580 53.1310 276° West 453 521 27,400 918 Climbing FlightAware ADS-B
Wed 05:46:33 PM 25.7690 53.0400 278° West 453 521 28,000 776 Climbing FlightAware ADS-B
Wed 05:47:18 PM 25.7850 52.9330 279° West 459 528 28,500 1,271 Climbing FlightAware ADS-B
Wed 05:47:58 PM 25.7980 52.8440 279° West 441 507 29,800 2,175 Climbing FlightAware ADS-B
Wed 05:48:38 PM 25.8110 52.7530 279° West 415 478 31,400 1,553 Climbing FlightAware ADS-B
Wed 05:49:23 PM 25.8240 52.6630 279° West 414 476 32,000 424 Climbing FlightAware ADS-B
Wed 05:50:03 PM 25.8360 52.5760 279° West 425 489 32,000  Level FlightAware ADS-B
Wed 05:50:48 PM 25.8570 52.4760 283° West 429 494 32,000  Level FlightAware ADS-B
Wed 05:51:28 PM 25.8870 52.3950 292° West 430 495 32,000  Level FlightAware ADS-B
Wed 05:52:08 PM 25.9250 52.3170 298° West 430 495 32,000  Level FlightAware ADS-B
Wed 05:52:53 PM 25.9670 52.2290 298° West 431 496 32,000  Level FlightAware ADS-B
Wed 05:53:28 PM 26.0010 52.1610 299° West 432 497 32,000  Level FlightAware ADS-B
Wed 05:53:53 PM 26.0240 52.1110 297° West 432 497 32,000  Level FlightAware ADS-B
Wed 05:54:33 PM 26.0620 52.0340 299° West 433 498 32,000  Level FlightAware ADS-B
Wed 05:55:13 PM 26.1020 51.9510 298° West 433 498 32,000  Level FlightAware ADS-B
Wed 05:56:33 PM 26.1750 51.7990 298° West 431 496 32,000  Level FlightAware ADS-B
Wed 05:57:13 PM 26.2100 51.7200 296° West 433 498 32,000  Level FlightAware ADS-B
Wed 05:57:58 PM 26.2500 51.6310 297° West 432 497 32,000  Level FlightAware ADS-B
Wed 05:58:38 PM 26.2870 51.5510 297° West 432 497 32,000  Level FlightAware ADS-B
Wed 05:59:18 PM 26.3230 51.4710 297° West 432 497 32,000  Level FlightAware ADS-B
Wed 06:00:03 PM 26.3630 51.3800 296° West 430 495 32,000  Level FlightAware ADS-B
Wed 06:00:43 PM 26.3950 51.3000 294° West 430 495 32,000  Level FlightAware ADS-B
Wed 06:01:28 PM 26.4320 51.2090 294° West 431 496 32,000  Level FlightAware ADS-B
Wed 06:02:08 PM 26.4660 51.1260 295° West 429 494 32,000  Level FlightAware ADS-B
Wed 06:02:53 PM 26.5020 51.0350 294° West 429 494 32,000  Level FlightAware ADS-B
Wed 06:03:33 PM 26.5350 50.9540 294° West 424 488 32,000  Level FlightAware ADS-B
Wed 06:04:13 PM 26.5630 50.8720 291° West 424 488 32,000  Level FlightAware ADS-B
Wed 06:04:58 PM 26.5950 50.7790 291° West 422 486 32,000  Level FlightAware ADS-B
Wed 06:05:38 PM 26.6220 50.6990 291° West 425 489 32,000  Level FlightAware ADS-B
Wed 06:06:23 PM 26.6510 50.6120 290° West 424 488 32,000  Level FlightAware ADS-B
Wed 06:07:03 PM 26.6790 50.5290 291° West 424 488 32,000  Level FlightAware ADS-B
Wed 06:07:43 PM 26.7010 50.4590 289° West 424 488 32,000  Level FlightAware ADS-B
Wed 06:08:23 PM 26.7240 50.3890 290° West 424 488 32,000  Level FlightAware ADS-B
Wed 06:09:03 PM 26.7470 50.3190 290° West 424 488 32,000  Level FlightAware ADS-B
Wed 06:09:43 PM 26.7700 50.2480 290° West 424 488 32,000  Level FlightAware ADS-B
Wed 06:10:03 PM 26.7490 50.1490 257° West 415 478 32,000  Level FlightAware ADS-B
Wed 06:10:38 PM 26.7450 50.0790 266° West 415 478 32,000  Level FlightAware ADS-B
Wed 06:11:28 PM 26.7410 49.9880 267° West 415 478 32,000  Level FlightAware ADS-B
Wed 06:12:08 PM 26.7380 49.9150 267° West 415 478 32,000  Level FlightAware ADS-B
Wed 06:12:48 PM 26.7340 49.8420 267° West 415 478 32,000  Level FlightAware ADS-B
Wed 06:13:28 PM 26.7310 49.7690 267° West 415 478 32,000  Level FlightAware ADS-B
Wed 06:14:13 PM 26.7310 49.6220 270° West 32,000  Level FlightAware ADS-B
Wed 06:14:53 PM 26.7270 49.5290 267° West 411 473 32,000  Level FlightAware ADS-B
Wed 06:15:38 PM 26.7240 49.4370 268° West 410 472 32,000  Level FlightAware ADS-B
Wed 06:16:23 PM 26.7200 49.3440 267° West 409 471 32,000  Level FlightAware ADS-B
Wed 06:17:18 PM 26.7150 49.2280 267° West 409 471 32,000  Level FlightAware ADS-B
Wed 06:17:58 PM 26.7120 49.1380 268° West 409 471 32,000  Level FlightAware ADS-B
Wed 06:18:43 PM 26.7080 49.0440 267° West 407 468 32,000  Level FlightAware ADS-B
Wed 06:19:23 PM 26.7050 48.9600 268° West 405 466 32,000  Level FlightAware ADS-B
Wed 06:20:03 PM 26.7010 48.8750 267° West 406 467 32,000  Level FlightAware ADS-B
Wed 06:20:48 PM 26.6970 48.7820 267° West 407 468 32,000  Level FlightAware ADS-B
Wed 06:21:28 PM 26.6930 48.6970 267° West 408 470 32,000  Level FlightAware ADS-B
Wed 06:22:08 PM 26.6900 48.6120 268° West 409 471 32,000  Level FlightAware ADS-B
Wed 06:22:53 PM 26.6860 48.5190 267° West 408 470 32,000  Level FlightAware ADS-B
Wed 06:23:33 PM 26.6820 48.4330 267° West 408 470 32,000  Level FlightAware ADS-B
Wed 06:24:18 PM 26.6780 48.3380 267° West 408 470 32,000  Level FlightAware ADS-B
Wed 06:24:58 PM 26.6740 48.2550 267° West 408 470 32,000  Level FlightAware ADS-B
Wed 06:25:38 PM 26.6700 48.1690 267° West 410 472 32,000  Level FlightAware ADS-B
Wed 06:26:23 PM 26.6650 48.0740 267° West 409 471 32,000  Level FlightAware ADS-B
Wed 06:27:18 PM 26.6650 47.9590 270° West 412 474 32,000  Level FlightAware ADS-B
Wed 06:28:03 PM 26.6790 47.8630 279° West 414 476 32,000  Level FlightAware ADS-B
Wed 06:28:43 PM 26.6920 47.7790 280° West 415 478 32,000  Level FlightAware ADS-B
Wed 06:29:23 PM 26.7050 47.6930 280° West 419 482 32,000  Level FlightAware ADS-B
Wed 06:30:08 PM 26.7200 47.5970 280° West 421 484 32,000  Level FlightAware ADS-B
Wed 06:30:48 PM 26.7330 47.5110 280° West 424 488 32,000  Level FlightAware ADS-B
Wed 06:31:33 PM 26.7480 47.4140 280° West 425 489 32,000  Level FlightAware ADS-B
Wed 06:32:13 PM 26.7620 47.3270 280° West 424 488 32,000  Level FlightAware ADS-B
Wed 06:32:53 PM 26.7750 47.2400 280° West 423 487 32,000  Level FlightAware ADS-B
Wed 06:33:38 PM 26.7900 47.1430 280° West 421 484 32,000  Level FlightAware ADS-B
Wed 06:34:18 PM 26.8030 47.0560 280° West 421 484 32,000  Level FlightAware ADS-B
Wed 06:34:58 PM 26.8160 46.9700 280° West 422 486 32,000  Level FlightAware ADS-B
Wed 06:35:28 PM 26.8260 46.9070 280° West 423 487 32,000  Level FlightAware ADS-B
Wed 06:36:13 PM 26.8410 46.8080 280° West 424 488 32,000  Level FlightAware ADS-B
Wed 06:36:53 PM 26.8530 46.7230 279° West 425 489 32,000  Level FlightAware ADS-B
Wed 06:37:38 PM 26.8680 46.6240 280° West 423 487 32,000  Level FlightAware ADS-B
Wed 06:38:18 PM 26.8810 46.5380 280° West 424 488 32,000  Level FlightAware ADS-B
Wed 06:38:58 PM 26.8940 46.4510 280° West 424 488 32,000  Level FlightAware ADS-B
Wed 06:39:43 PM 26.9080 46.3540 279° West 422 486 32,000  Level FlightAware ADS-B
Wed 06:40:23 PM 26.9210 46.2710 280° West 418 481 32,000  Level FlightAware ADS-B
Wed 06:41:03 PM 26.9340 46.1830 279° West 414 476 32,000  Level FlightAware ADS-B
Wed 06:41:48 PM 26.9480 46.0870 279° West 411 473 32,000  Level FlightAware ADS-B
Wed 06:42:28 PM 26.9600 46.0050 279° West 409 471 32,000  Level FlightAware ADS-B
Wed 06:43:13 PM 26.9740 45.9110 280° West 406 467 32,000  Level FlightAware ADS-B
Wed 06:43:53 PM 26.9860 45.8270 279° West 404 465 32,000  Level FlightAware ADS-B
Wed 06:44:38 PM 26.9990 45.7360 279° West 404 465 32,000  Level FlightAware ADS-B
Wed 06:45:18 PM 27.0110 45.6520 279° West 402 463 32,000  Level FlightAware ADS-B
Wed 06:45:58 PM 27.0230 45.5700 279° West 400 460 32,000  Level FlightAware ADS-B
Wed 06:46:43 PM 27.0360 45.4800 279° West 397 457 32,000  Level FlightAware ADS-B
Wed 06:47:23 PM 27.0470 45.3990 279° West 398 458 32,000  Level FlightAware ADS-B
Wed 06:47:58 PM 27.0540 45.3330 277° West 401 461 32,000  Level FlightAware ADS-B
Wed 06:48:48 PM 27.0650 45.2300 277° West 404 465 32,000  Level FlightAware ADS-B
Wed 06:49:28 PM 27.0730 45.1590 277° West 404 465 32,000  Level FlightAware ADS-B
Wed 06:50:08 PM 27.0810 45.0890 277° West 404 465 32,000  Level FlightAware ADS-B
Wed 06:50:48 PM 27.0890 45.0180 277° West 404 465 32,000  Level FlightAware ADS-B
Wed 06:51:38 PM 27.0980 44.9290 277° West 404 465 32,000  Level FlightAware ADS-B
Wed 06:52:18 PM 27.1060 44.8580 277° West 404 465 32,000  Level FlightAware ADS-B
Wed 06:52:58 PM 27.1140 44.7870 277° West 404 465 32,000  Level FlightAware ADS-B
Wed 06:53:38 PM 27.1210 44.7170 276° West 404 465 32,000  Level FlightAware ADS-B
Wed 06:54:18 PM 27.1290 44.6460 277° West 404 465 32,000  Level FlightAware ADS-B
Wed 06:54:58 PM 27.1370 44.5750 277° West 404 465 32,000  Level FlightAware ADS-B
Wed 06:55:48 PM 27.1470 44.4860 277° West 404 465 32,000  Level FlightAware ADS-B
Wed 06:56:28 PM 27.1540 44.4150 276° West 404 465 32,000  Level FlightAware ADS-B
Wed 06:57:08 PM 27.1620 44.3440 277° West 404 465 32,000  Level FlightAware ADS-B
Wed 06:57:48 PM 27.1700 44.2740 277° West 404 465 32,000 -255 Level FlightAware ADS-B
Wed 07:00:00 PM 27.2427 44.0167 288° West  Level Estimated
Wed 07:01:00 PM 27.2756 43.8996 288° West  Level Estimated
Wed 07:02:00 PM 27.3084 43.7824 288° West  Level Estimated
Wed 07:03:00 PM 27.3411 43.6652 287° West  Level Estimated
Wed 07:04:00 PM 27.3737 43.5479 287° West  Level Estimated
Wed 07:05:00 PM 27.4062 43.4306 287° West  Level Estimated
Wed 07:06:00 PM 27.4386 43.3131 287° West  Level Estimated
Wed 07:07:00 PM 27.4709 43.1956 287° West  Level Estimated
Wed 07:08:00 PM 27.5031 43.0781 287° West  Level Estimated
Wed 07:09:00 PM 27.5352 42.9604 287° West  Level Estimated
Wed 07:10:00 PM 27.5673 42.8427 287° West  Level Estimated
Wed 07:11:00 PM 27.5992 42.7249 287° West  Level Estimated
Wed 07:12:00 PM 27.6310 42.6071 287° West  Level Estimated
Wed 07:13:00 PM 27.6627 42.4892 287° West  Level Estimated
Wed 07:14:00 PM 27.6943 42.3712 287° West  Level Estimated
Wed 07:15:00 PM 27.7258 42.2532 287° West  Level Estimated
Wed 07:16:00 PM 27.7572 42.1351 287° West  Level Estimated
Wed 07:17:00 PM 27.7885 42.0169 287° West  Level Estimated
Wed 07:18:00 PM 27.8197 41.8986 287° West  Level Estimated
Wed 07:19:00 PM 27.8508 41.7803 287° West  Level Estimated
Wed 07:20:00 PM 27.8819 41.6619 287° West  Level Estimated
Wed 07:21:00 PM 27.9128 41.5435 286° West  Level Estimated
Wed 07:22:00 PM 27.9436 41.4249 286° West  Level Estimated
Wed 07:23:00 PM 27.9743 41.3064 286° West  Level Estimated
Wed 07:24:00 PM 28.0049 41.1877 286° West  Level Estimated
Wed 07:25:00 PM 28.0354 41.0690 286° West  Level Estimated
Wed 07:26:00 PM 28.0658 40.9502 286° West  Level Estimated
Wed 07:27:00 PM 28.0961 40.8313 286° West  Level Estimated
Wed 07:28:00 PM 28.1263 40.7124 286° West  Level Estimated
Wed 07:29:00 PM 28.1564 40.5934 286° West  Level Estimated
Wed 07:30:00 PM 28.1864 40.4743 286° West  Level Estimated
Wed 07:31:00 PM 28.2162 40.3552 286° West  Level Estimated
Wed 07:32:00 PM 28.2460 40.2360 286° West  Level Estimated
Wed 07:33:00 PM 28.2757 40.1168 286° West  Level Estimated
Wed 07:34:00 PM 28.3053 39.9974 286° West  Level Estimated
Wed 07:35:00 PM 28.3348 39.8781 286° West  Level Estimated
Wed 07:36:00 PM 28.3641 39.7586 286° West  Level Estimated
Wed 07:37:00 PM 28.3934 39.6391 286° West  Level Estimated
Wed 07:38:00 PM 28.4226 39.5195 286° West  Level Estimated
Wed 07:39:00 PM 28.4516 39.3998 285° West  Level Estimated
Wed 07:40:00 PM 28.4806 39.2801 285° West  Level Estimated
Wed 07:41:00 PM 28.5094 39.1603 285° West  Level Estimated
Wed 07:42:00 PM 28.5381 39.0405 285° West  Level Estimated
Wed 07:43:00 PM 28.5668 38.9205 285° West  Level Estimated
Wed 07:44:00 PM 28.5953 38.8006 285° West  Level Estimated
Wed 07:45:00 PM 28.6237 38.6805 285° West  Level Estimated
Wed 07:46:00 PM 28.6520 38.5604 285° West  Level Estimated
Wed 07:47:00 PM 28.6803 38.4402 285° West  Level Estimated
Wed 07:48:00 PM 28.7084 38.3200 285° West  Level Estimated
Wed 07:49:00 PM 28.7364 38.1997 285° West  Level Estimated
Wed 07:50:00 PM 28.7642 38.0793 285° West  Level Estimated
Wed 07:51:00 PM 28.7920 37.9589 285° West  Level Estimated
Wed 07:52:00 PM 28.8197 37.8384 285° West  Level Estimated
Wed 07:53:00 PM 28.8473 37.7178 285° West  Level Estimated
Wed 07:54:00 PM 28.8748 37.5972 285° West  Level Estimated
Wed 07:55:00 PM 28.9021 37.4765 285° West  Level Estimated
Wed 07:56:00 PM 28.9294 37.3557 284° West  Level Estimated
Wed 07:57:00 PM 28.9565 37.2349 284° West  Level Estimated
Wed 07:58:00 PM 28.9835 37.1140 284° West  Level Estimated
Wed 07:59:00 PM 29.0105 36.9931 284° West  Level Estimated
Wed 08:00:00 PM 29.0373 36.8721 284° West  Level Estimated
Wed 08:01:00 PM 29.0640 36.7510 284° West  Level Estimated
Wed 08:02:00 PM 29.0906 36.6299 284° West  Level Estimated
Wed 08:03:00 PM 29.1171 36.5087 284° West  Level Estimated
Wed 08:04:00 PM 29.1435 36.3874 284° West  Level Estimated
Wed 08:05:00 PM 29.1697 36.2661 284° West  Level Estimated
Wed 08:06:00 PM 29.1959 36.1447 284° West  Level Estimated
Wed 08:07:00 PM 29.2219 36.0233 284° West  Level Estimated
Wed 08:08:00 PM 29.2479 35.9018 284° West  Level Estimated
Wed 08:09:00 PM 29.2737 35.7802 284° West  Level Estimated
Wed 08:10:00 PM 29.2994 35.6586 284° West  Level Estimated
Wed 08:11:00 PM 29.3251 35.5369 284° West  Level Estimated
Wed 08:12:00 PM 29.3505 35.4152 284° West  Level Estimated
Wed 08:13:00 PM 29.3759 35.2934 283° West  Level Estimated
Wed 08:14:00 PM 29.4012 35.1715 283° West  Level Estimated
Wed 08:15:00 PM 29.4264 35.0495 283° West  Level Estimated
Wed 08:16:00 PM 29.4515 34.9276 283° West  Level Estimated
Wed 08:17:00 PM 29.4764 34.8055 283° West  Level Estimated
Wed 08:18:00 PM 29.5012 34.6834 283° West  Level Estimated
Wed 08:19:00 PM 29.5260 34.5612 283° West  Level Estimated
Wed 08:20:00 PM 29.5506 34.4390 283° West  Level Estimated
Wed 08:21:00 PM 29.5751 34.3167 283° West  Level Estimated
Wed 08:22:00 PM 29.5995 34.1944 283° West  Level Estimated
Wed 08:23:00 PM 29.6238 34.0719 283° West  Level Estimated
Wed 08:24:00 PM 29.6479 33.9495 283° West  Level Estimated
Wed 08:25:00 PM 29.6720 33.8270 283° West  Level Estimated
Wed 08:26:00 PM 29.6959 33.7044 283° West  Level Estimated
Wed 08:27:00 PM 29.7197 33.5817 283° West  Level Estimated
Wed 08:28:00 PM 29.7435 33.4590 283° West  Level Estimated
Wed 08:29:00 PM 29.7671 33.3363 283° West  Level Estimated
Wed 08:30:00 PM 29.7906 33.2135 282° West  Level Estimated
Wed 08:31:00 PM 29.8139 33.0906 282° West  Level Estimated
Wed 08:32:00 PM 29.8372 32.9677 282° West  Level Estimated
Wed 08:33:00 PM 29.8603 32.8447 282° West  Level Estimated
Wed 08:34:00 PM 29.8834 32.7216 282° West  Level Estimated
Wed 08:35:00 PM 29.9063 32.5985 282° West  Level Estimated
Wed 08:36:00 PM 29.9291 32.4753 282° West  Level Estimated
Wed 08:37:00 PM 29.9518 32.3521 282° West  Level Estimated
Wed 08:38:00 PM 29.9744 32.2289 282° West  Level Estimated
Wed 08:39:00 PM 29.9968 32.1055 282° West  Level Estimated
Wed 08:40:00 PM 30.0192 31.9822 282° West  Level Estimated
Wed 08:41:00 PM 30.0414 31.8587 282° West  Level Estimated
Wed 08:42:00 PM 30.0635 31.7352 282° West  Level Estimated
Wed 08:43:00 PM 30.0855 31.6117 282° West  Level Estimated
Wed 08:44:00 PM 30.1074 31.4881 282° West  Level Estimated
Wed 08:45:00 PM 30.1219 31.4056 282° West  Level Estimated
Wed 08:46:00 PM 30.1219 31.4056 319° Northwest  Level Estimated
Wed 08:47:00 PM 30.1219 31.4056 319° Northwest  Level Estimated
Wed 08:48:00 PM 30.1219 31.4056 319° Northwest  Level Estimated
Wed 08:49:00 PM 30.1219 31.4056 319° Northwest  Level Estimated
Wed 08:50:00 PM 30.1219 31.4056 319° Northwest  Level Estimated
Wed 08:51:00 PM 30.1219 31.4056 319° Northwest  Level Estimated
Wed 08:52:00 PM 30.1219 31.4056 319° Northwest  Level Estimated
Wed 08:52:43 PM 29.9700 31.2870 319° Northwest 181 208 2,500  Level FlightAware ADS-B
Wed 08:53:00 PM 30.1219 31.4056 319° Northwest  Level Estimated
Wed 08:53:18 PM 29.9890 31.3120 49° Northeast 181 208 2,500  Level FlightAware ADS-B
Wed 08:53:43 PM 30.0020 31.3290 49° Northeast 181 208 2,500 -360 Level FlightAware ADS-B
Wed 08:54:58 PM 30.0370 31.3770 50° Northeast 181 208 1,900 -480 Descending FlightAware ADS-B
Wed 08:57:00 PM 30.1219 31.4056 16° North  Level Estimated
Wed 08:58:00 PM 30.1219 31.4056 319° Northwest  Level Estimated
Wed 08:59:00 PM 30.1219 31.4056 319° Northwest  Level Estimated
Wed 09:00:00 PM 30.1219 31.4056 319° Northwest  Level Estimated

Login

Don't have an account? Register now (free) for customized features, flight alerts, and more!